sensor_id;sensor_type;location;lat;lon;timestamp;P1;durP1;ratioP1;P2;durP2;ratioP2
78799;SDS011;68148;55.328;86.106;2023-05-07T00:01:48;42.08;;;15.90;;
78799;SDS011;68148;55.328;86.106;2023-05-07T00:04:14;42.63;;;17.58;;
78799;SDS011;68148;55.328;86.106;2023-05-07T00:06:40;47.00;;;17.55;;
78799;SDS011;68148;55.328;86.106;2023-05-07T00:09:06;55.58;;;18.60;;
78799;SDS011;68148;55.328;86.106;2023-05-07T00:11:33;55.47;;;19.25;;
78799;SDS011;68148;55.328;86.106;2023-05-07T00:13:59;42.03;;;18.88;;
78799;SDS011;68148;55.328;86.106;2023-05-07T00:16:25;47.63;;;18.15;;
78799;SDS011;68148;55.328;86.106;2023-05-07T00:18:51;54.08;;;19.58;;
78799;SDS011;68148;55.328;86.106;2023-05-07T00:21:18;62.20;;;18.73;;
78799;SDS011;68148;55.328;86.106;2023-05-07T00:23:44;43.70;;;19.42;;
78799;SDS011;68148;55.328;86.106;2023-05-07T00:26:09;44.15;;;18.52;;
78799;SDS011;68148;55.328;86.106;2023-05-07T00:28:35;45.92;;;17.40;;
78799;SDS011;68148;55.328;86.106;2023-05-07T00:31:01;41.70;;;18.13;;
78799;SDS011;68148;55.328;86.106;2023-05-07T00:33:27;42.58;;;16.50;;
78799;SDS011;68148;55.328;86.106;2023-05-07T00:35:53;37.15;;;14.13;;
78799;SDS011;68148;55.328;86.106;2023-05-07T00:38:19;30.73;;;13.55;;
78799;SDS011;68148;55.328;86.106;2023-05-07T00:40:45;30.80;;;12.05;;
78799;SDS011;68148;55.328;86.106;2023-05-07T00:43:13;45.03;;;13.82;;
78799;SDS011;68148;55.328;86.106;2023-05-07T00:45:38;39.33;;;13.50;;
78799;SDS011;68148;55.328;86.106;2023-05-07T00:48:04;38.53;;;13.90;;
78799;SDS011;68148;55.328;86.106;2023-05-07T00:50:31;32.05;;;12.70;;
78799;SDS011;68148;55.328;86.106;2023-05-07T00:52:59;29.38;;;12.65;;
78799;SDS011;68148;55.328;86.106;2023-05-07T00:55:25;32.45;;;12.75;;
78799;SDS011;68148;55.328;86.106;2023-05-07T00:58:00;29.98;;;12.32;;
78799;SDS011;68148;55.328;86.106;2023-05-07T01:00:26;27.80;;;12.25;;
78799;SDS011;68148;55.328;86.106;2023-05-07T01:02:52;40.03;;;12.15;;
78799;SDS011;68148;55.328;86.106;2023-05-07T01:05:18;28.75;;;11.80;;
78799;SDS011;68148;55.328;86.106;2023-05-07T01:07:45;35.30;;;12.23;;
78799;SDS011;68148;55.328;86.106;2023-05-07T01:10:11;23.65;;;10.50;;
78799;SDS011;68148;55.328;86.106;2023-05-07T01:12:37;30.00;;;12.50;;
78799;SDS011;68148;55.328;86.106;2023-05-07T01:15:05;26.85;;;11.18;;
78799;SDS011;68148;55.328;86.106;2023-05-07T01:17:35;24.23;;;11.23;;
78799;SDS011;68148;55.328;86.106;2023-05-07T01:20:04;20.48;;;10.55;;
78799;SDS011;68148;55.328;86.106;2023-05-07T01:22:31;27.88;;;11.98;;
78799;SDS011;68148;55.328;86.106;2023-05-07T01:25:00;19.55;;;10.50;;
78799;SDS011;68148;55.328;86.106;2023-05-07T01:27:27;21.00;;;11.15;;
78799;SDS011;68148;55.328;86.106;2023-05-07T01:29:53;26.92;;;10.68;;
78799;SDS011;68148;55.328;86.106;2023-05-07T01:32:24;22.48;;;10.95;;
78799;SDS011;68148;55.328;86.106;2023-05-07T01:35:13;26.55;;;11.07;;
78799;SDS011;68148;55.328;86.106;2023-05-07T01:37:43;35.15;;;11.18;;
78799;SDS011;68148;55.328;86.106;2023-05-07T01:40:10;32.67;;;11.25;;
78799;SDS011;68148;55.328;86.106;2023-05-07T01:42:37;25.45;;;10.82;;
78799;SDS011;68148;55.328;86.106;2023-05-07T01:45:03;38.47;;;12.38;;
78799;SDS011;68148;55.328;86.106;2023-05-07T01:47:29;28.63;;;11.63;;
78799;SDS011;68148;55.328;86.106;2023-05-07T01:49:55;28.98;;;12.00;;
78799;SDS011;68148;55.328;86.106;2023-05-07T01:52:22;28.58;;;10.85;;
78799;SDS011;68148;55.328;86.106;2023-05-07T01:54:48;25.05;;;11.93;;
78799;SDS011;68148;55.328;86.106;2023-05-07T01:57:14;25.40;;;10.63;;
78799;SDS011;68148;55.328;86.106;2023-05-07T01:59:39;27.17;;;10.93;;
78799;SDS011;68148;55.328;86.106;2023-05-07T02:02:05;27.13;;;11.48;;
78799;SDS011;68148;55.328;86.106;2023-05-07T02:04:31;25.00;;;11.50;;
78799;SDS011;68148;55.328;86.106;2023-05-07T02:06:57;29.52;;;11.38;;
78799;SDS011;68148;55.328;86.106;2023-05-07T02:09:22;30.63;;;12.00;;
78799;SDS011;68148;55.328;86.106;2023-05-07T02:11:48;32.85;;;12.00;;
78799;SDS011;68148;55.328;86.106;2023-05-07T02:14:14;31.23;;;11.35;;
78799;SDS011;68148;55.328;86.106;2023-05-07T02:16:41;33.70;;;12.38;;
78799;SDS011;68148;55.328;86.106;2023-05-07T02:19:06;30.50;;;10.73;;
78799;SDS011;68148;55.328;86.106;2023-05-07T02:21:32;26.48;;;10.55;;
78799;SDS011;68148;55.328;86.106;2023-05-07T02:23:58;28.13;;;10.55;;
78799;SDS011;68148;55.328;86.106;2023-05-07T02:26:24;19.58;;;9.40;;
78799;SDS011;68148;55.328;86.106;2023-05-07T02:28:49;22.55;;;9.30;;
78799;SDS011;68148;55.328;86.106;2023-05-07T02:31:17;21.92;;;9.30;;
78799;SDS011;68148;55.328;86.106;2023-05-07T02:33:43;23.05;;;9.25;;
78799;SDS011;68148;55.328;86.106;2023-05-07T02:36:09;20.75;;;8.48;;
78799;SDS011;68148;55.328;86.106;2023-05-07T02:38:36;23.10;;;8.65;;
78799;SDS011;68148;55.328;86.106;2023-05-07T02:41:01;18.88;;;8.18;;
78799;SDS011;68148;55.328;86.106;2023-05-07T02:43:27;19.27;;;8.18;;
78799;SDS011;68148;55.328;86.106;2023-05-07T02:46:00;23.75;;;8.75;;
78799;SDS011;68148;55.328;86.106;2023-05-07T02:48:30;26.92;;;9.25;;
78799;SDS011;68148;55.328;86.106;2023-05-07T02:50:56;25.67;;;8.73;;
78799;SDS011;68148;55.328;86.106;2023-05-07T02:53:23;22.83;;;8.63;;
78799;SDS011;68148;55.328;86.106;2023-05-07T02:55:49;19.63;;;8.30;;
78799;SDS011;68148;55.328;86.106;2023-05-07T02:58:14;26.63;;;8.82;;
78799;SDS011;68148;55.328;86.106;2023-05-07T03:00:40;19.85;;;9.30;;
78799;SDS011;68148;55.328;86.106;2023-05-07T03:03:06;17.90;;;10.40;;
78799;SDS011;68148;55.328;86.106;2023-05-07T03:05:32;23.90;;;10.55;;
78799;SDS011;68148;55.328;86.106;2023-05-07T03:07:57;55.08;;;10.32;;
78799;SDS011;68148;55.328;86.106;2023-05-07T03:10:23;22.10;;;10.55;;
78799;SDS011;68148;55.328;86.106;2023-05-07T03:12:49;21.52;;;9.30;;
78799;SDS011;68148;55.328;86.106;2023-05-07T03:15:16;19.75;;;8.25;;
78799;SDS011;68148;55.328;86.106;2023-05-07T03:17:42;42.53;;;11.77;;
78799;SDS011;68148;55.328;86.106;2023-05-07T03:20:08;30.52;;;10.90;;
78799;SDS011;68148;55.328;86.106;2023-05-07T03:22:34;19.88;;;9.43;;
78799;SDS011;68148;55.328;86.106;2023-05-07T03:24:59;31.50;;;9.60;;
78799;SDS011;68148;55.328;86.106;2023-05-07T03:27:25;14.63;;;8.63;;
78799;SDS011;68148;55.328;86.106;2023-05-07T03:29:51;43.67;;;10.00;;
78799;SDS011;68148;55.328;86.106;2023-05-07T03:32:17;25.77;;;11.00;;
78799;SDS011;68148;55.328;86.106;2023-05-07T03:34:43;31.35;;;11.15;;
78799;SDS011;68148;55.328;86.106;2023-05-07T03:37:09;22.77;;;8.75;;
78799;SDS011;68148;55.328;86.106;2023-05-07T03:39:34;32.55;;;11.05;;
78799;SDS011;68148;55.328;86.106;2023-05-07T03:42:01;17.83;;;8.27;;
78799;SDS011;68148;55.328;86.106;2023-05-07T03:46:55;27.33;;;8.35;;
78799;SDS011;68148;55.328;86.106;2023-05-07T03:49:23;24.33;;;8.82;;
78799;SDS011;68148;55.328;86.106;2023-05-07T03:51:49;25.90;;;8.88;;
78799;SDS011;68148;55.328;86.106;2023-05-07T03:54:15;16.38;;;8.43;;
78799;SDS011;68148;55.328;86.106;2023-05-07T03:56:40;21.92;;;8.95;;
78799;SDS011;68148;55.328;86.106;2023-05-07T03:59:06;22.13;;;8.80;;
78799;SDS011;68148;55.328;86.106;2023-05-07T04:01:32;19.98;;;8.65;;
78799;SDS011;68148;55.328;86.106;2023-05-07T04:03:58;20.75;;;8.20;;
78799;SDS011;68148;55.328;86.106;2023-05-07T04:06:23;16.88;;;8.23;;
78799;SDS011;68148;55.328;86.106;2023-05-07T04:08:51;26.92;;;9.32;;
78799;SDS011;68148;55.328;86.106;2023-05-07T04:11:17;22.95;;;8.75;;
78799;SDS011;68148;55.328;86.106;2023-05-07T04:13:43;20.05;;;8.48;;
78799;SDS011;68148;55.328;86.106;2023-05-07T04:16:09;27.70;;;8.38;;
78799;SDS011;68148;55.328;86.106;2023-05-07T04:18:35;17.88;;;9.98;;
78799;SDS011;68148;55.328;86.106;2023-05-07T04:21:00;24.15;;;9.88;;
78799;SDS011;68148;55.328;86.106;2023-05-07T04:23:29;24.50;;;9.38;;
78799;SDS011;68148;55.328;86.106;2023-05-07T04:28:20;43.88;;;10.10;;
78799;SDS011;68148;55.328;86.106;2023-05-07T04:30:46;22.95;;;10.18;;
78799;SDS011;68148;55.328;86.106;2023-05-07T04:33:13;23.20;;;11.23;;
78799;SDS011;68148;55.328;86.106;2023-05-07T04:35:39;21.17;;;11.38;;
78799;SDS011;68148;55.328;86.106;2023-05-07T04:38:05;21.17;;;12.13;;
78799;SDS011;68148;55.328;86.106;2023-05-07T04:40:31;21.10;;;12.35;;
78799;SDS011;68148;55.328;86.106;2023-05-07T04:42:56;24.27;;;11.93;;
78799;SDS011;68148;55.328;86.106;2023-05-07T04:45:22;23.90;;;11.27;;
78799;SDS011;68148;55.328;86.106;2023-05-07T04:47:48;44.70;;;12.85;;
78799;SDS011;68148;55.328;86.106;2023-05-07T04:50:14;28.17;;;11.80;;
78799;SDS011;68148;55.328;86.106;2023-05-07T04:52:40;20.65;;;11.15;;
78799;SDS011;68148;55.328;86.106;2023-05-07T04:55:06;24.15;;;11.38;;
78799;SDS011;68148;55.328;86.106;2023-05-07T04:57:32;23.95;;;10.55;;
78799;SDS011;68148;55.328;86.106;2023-05-07T04:59:58;29.88;;;11.68;;
78799;SDS011;68148;55.328;86.106;2023-05-07T05:02:24;21.95;;;12.05;;
78799;SDS011;68148;55.328;86.106;2023-05-07T05:04:50;22.45;;;12.57;;
78799;SDS011;68148;55.328;86.106;2023-05-07T05:07:16;27.45;;;11.32;;
78799;SDS011;68148;55.328;86.106;2023-05-07T05:09:42;17.77;;;11.45;;
78799;SDS011;68148;55.328;86.106;2023-05-07T05:12:08;27.05;;;12.43;;
78799;SDS011;68148;55.328;86.106;2023-05-07T05:14:34;22.92;;;12.68;;
78799;SDS011;68148;55.328;86.106;2023-05-07T05:17:00;29.17;;;12.75;;
78799;SDS011;68148;55.328;86.106;2023-05-07T05:19:26;32.38;;;12.35;;
78799;SDS011;68148;55.328;86.106;2023-05-07T05:21:52;31.05;;;12.15;;
78799;SDS011;68148;55.328;86.106;2023-05-07T05:24:18;20.83;;;13.07;;
78799;SDS011;68148;55.328;86.106;2023-05-07T05:26:44;27.77;;;13.43;;
78799;SDS011;68148;55.328;86.106;2023-05-07T05:29:09;28.80;;;12.88;;
78799;SDS011;68148;55.328;86.106;2023-05-07T05:31:35;32.17;;;12.75;;
78799;SDS011;68148;55.328;86.106;2023-05-07T05:34:02;21.33;;;12.00;;
78799;SDS011;68148;55.328;86.106;2023-05-07T05:36:28;22.90;;;11.77;;
78799;SDS011;68148;55.328;86.106;2023-05-07T05:38:55;22.17;;;12.20;;
78799;SDS011;68148;55.328;86.106;2023-05-07T05:41:21;22.40;;;13.80;;
78799;SDS011;68148;55.328;86.106;2023-05-07T05:43:48;25.02;;;12.90;;
78799;SDS011;68148;55.328;86.106;2023-05-07T05:46:14;29.55;;;13.65;;
78799;SDS011;68148;55.328;86.106;2023-05-07T05:48:40;21.20;;;12.00;;
78799;SDS011;68148;55.328;86.106;2023-05-07T05:51:06;30.13;;;12.55;;
78799;SDS011;68148;55.328;86.106;2023-05-07T05:53:32;24.70;;;12.88;;
78799;SDS011;68148;55.328;86.106;2023-05-07T05:55:57;26.00;;;12.98;;
78799;SDS011;68148;55.328;86.106;2023-05-07T05:58:24;27.45;;;13.07;;
78799;SDS011;68148;55.328;86.106;2023-05-07T06:00:50;37.30;;;14.25;;
78799;SDS011;68148;55.328;86.106;2023-05-07T06:03:16;36.33;;;13.98;;
78799;SDS011;68148;55.328;86.106;2023-05-07T06:05:41;26.10;;;14.85;;
78799;SDS011;68148;55.328;86.106;2023-05-07T06:08:07;24.75;;;13.95;;
78799;SDS011;68148;55.328;86.106;2023-05-07T06:10:33;32.20;;;14.10;;
78799;SDS011;68148;55.328;86.106;2023-05-07T06:15:26;27.75;;;13.63;;
78799;SDS011;68148;55.328;86.106;2023-05-07T06:17:53;30.55;;;13.98;;
78799;SDS011;68148;55.328;86.106;2023-05-07T06:20:19;30.35;;;14.20;;
78799;SDS011;68148;55.328;86.106;2023-05-07T06:22:44;27.55;;;12.55;;
78799;SDS011;68148;55.328;86.106;2023-05-07T06:25:10;26.05;;;13.05;;
78799;SDS011;68148;55.328;86.106;2023-05-07T06:27:36;26.85;;;13.32;;
78799;SDS011;68148;55.328;86.106;2023-05-07T06:30:02;23.33;;;13.35;;
78799;SDS011;68148;55.328;86.106;2023-05-07T06:32:28;29.67;;;13.20;;
78799;SDS011;68148;55.328;86.106;2023-05-07T06:34:54;31.30;;;14.15;;
78799;SDS011;68148;55.328;86.106;2023-05-07T06:37:20;33.20;;;13.75;;
78799;SDS011;68148;55.328;86.106;2023-05-07T06:39:45;39.88;;;13.57;;
78799;SDS011;68148;55.328;86.106;2023-05-07T06:42:11;34.40;;;14.38;;
78799;SDS011;68148;55.328;86.106;2023-05-07T06:44:37;32.25;;;13.65;;
78799;SDS011;68148;55.328;86.106;2023-05-07T06:47:03;28.15;;;14.85;;
78799;SDS011;68148;55.328;86.106;2023-05-07T06:49:29;25.95;;;14.32;;
78799;SDS011;68148;55.328;86.106;2023-05-07T06:51:55;31.90;;;14.50;;
78799;SDS011;68148;55.328;86.106;2023-05-07T06:54:20;30.73;;;14.30;;
78799;SDS011;68148;55.328;86.106;2023-05-07T06:56:46;45.53;;;14.75;;
78799;SDS011;68148;55.328;86.106;2023-05-07T06:59:14;20.63;;;13.80;;
78799;SDS011;68148;55.328;86.106;2023-05-07T07:01:39;109.70;;;20.08;;
78799;SDS011;68148;55.328;86.106;2023-05-07T07:04:05;27.13;;;13.00;;
78799;SDS011;68148;55.328;86.106;2023-05-07T07:06:31;36.47;;;14.63;;
78799;SDS011;68148;55.328;86.106;2023-05-07T07:08:57;31.70;;;13.57;;
78799;SDS011;68148;55.328;86.106;2023-05-07T07:13:50;28.95;;;15.10;;
78799;SDS011;68148;55.328;86.106;2023-05-07T07:16:16;28.05;;;14.32;;
78799;SDS011;68148;55.328;86.106;2023-05-07T07:18:42;24.45;;;13.85;;
78799;SDS011;68148;55.328;86.106;2023-05-07T07:21:08;27.45;;;14.32;;
78799;SDS011;68148;55.328;86.106;2023-05-07T07:23:35;26.25;;;13.98;;
78799;SDS011;68148;55.328;86.106;2023-05-07T07:26:01;29.02;;;14.38;;
78799;SDS011;68148;55.328;86.106;2023-05-07T07:28:27;23.75;;;14.15;;
78799;SDS011;68148;55.328;86.106;2023-05-07T07:30:53;31.05;;;14.70;;
78799;SDS011;68148;55.328;86.106;2023-05-07T07:33:19;27.30;;;14.20;;
78799;SDS011;68148;55.328;86.106;2023-05-07T07:35:44;57.78;;;15.77;;
78799;SDS011;68148;55.328;86.106;2023-05-07T07:38:10;25.60;;;14.48;;
78799;SDS011;68148;55.328;86.106;2023-05-07T07:40:36;31.17;;;14.70;;
78799;SDS011;68148;55.328;86.106;2023-05-07T07:43:02;28.00;;;14.65;;
78799;SDS011;68148;55.328;86.106;2023-05-07T07:45:27;37.45;;;15.20;;
78799;SDS011;68148;55.328;86.106;2023-05-07T07:47:53;29.70;;;14.57;;
78799;SDS011;68148;55.328;86.106;2023-05-07T07:50:19;33.70;;;15.18;;
78799;SDS011;68148;55.328;86.106;2023-05-07T07:52:45;26.52;;;14.88;;
78799;SDS011;68148;55.328;86.106;2023-05-07T07:55:11;30.73;;;14.18;;
78799;SDS011;68148;55.328;86.106;2023-05-07T07:57:37;36.20;;;14.82;;
78799;SDS011;68148;55.328;86.106;2023-05-07T08:00:03;32.90;;;15.57;;
78799;SDS011;68148;55.328;86.106;2023-05-07T08:02:30;36.80;;;15.40;;
78799;SDS011;68148;55.328;86.106;2023-05-07T08:04:56;36.45;;;15.80;;
78799;SDS011;68148;55.328;86.106;2023-05-07T08:07:21;37.78;;;16.27;;
78799;SDS011;68148;55.328;86.106;2023-05-07T08:09:47;29.02;;;14.75;;
78799;SDS011;68148;55.328;86.106;2023-05-07T08:12:13;29.50;;;14.82;;
78799;SDS011;68148;55.328;86.106;2023-05-07T08:14:40;28.27;;;15.93;;
78799;SDS011;68148;55.328;86.106;2023-05-07T08:17:06;33.92;;;15.82;;
78799;SDS011;68148;55.328;86.106;2023-05-07T08:19:32;35.28;;;15.52;;
78799;SDS011;68148;55.328;86.106;2023-05-07T08:21:58;31.08;;;16.25;;
78799;SDS011;68148;55.328;86.106;2023-05-07T08:24:24;40.15;;;16.55;;
78799;SDS011;68148;55.328;86.106;2023-05-07T08:26:50;34.40;;;16.92;;
78799;SDS011;68148;55.328;86.106;2023-05-07T08:29:16;28.00;;;16.25;;
78799;SDS011;68148;55.328;86.106;2023-05-07T08:31:42;33.80;;;17.15;;
78799;SDS011;68148;55.328;86.106;2023-05-07T08:34:08;53.17;;;16.02;;
78799;SDS011;68148;55.328;86.106;2023-05-07T08:36:35;36.35;;;16.88;;
78799;SDS011;68148;55.328;86.106;2023-05-07T08:39:01;40.38;;;15.57;;
78799;SDS011;68148;55.328;86.106;2023-05-07T08:41:26;33.60;;;15.27;;
78799;SDS011;68148;55.328;86.106;2023-05-07T08:43:52;26.73;;;14.57;;
78799;SDS011;68148;55.328;86.106;2023-05-07T08:46:23;29.75;;;14.88;;
78799;SDS011;68148;55.328;86.106;2023-05-07T08:48:51;34.95;;;15.23;;
78799;SDS011;68148;55.328;86.106;2023-05-07T08:51:18;30.20;;;14.93;;
78799;SDS011;68148;55.328;86.106;2023-05-07T08:53:46;33.88;;;15.32;;
78799;SDS011;68148;55.328;86.106;2023-05-07T08:58:38;28.67;;;15.05;;
78799;SDS011;68148;55.328;86.106;2023-05-07T09:01:07;30.65;;;14.68;;
78799;SDS011;68148;55.328;86.106;2023-05-07T09:03:35;28.85;;;14.50;;
78799;SDS011;68148;55.328;86.106;2023-05-07T09:06:03;36.55;;;14.27;;
78799;SDS011;68148;55.328;86.106;2023-05-07T09:08:29;34.75;;;14.60;;
78799;SDS011;68148;55.328;86.106;2023-05-07T09:10:55;30.58;;;15.63;;
78799;SDS011;68148;55.328;86.106;2023-05-07T09:13:20;26.58;;;15.27;;
78799;SDS011;68148;55.328;86.106;2023-05-07T09:15:46;33.75;;;15.75;;
78799;SDS011;68148;55.328;86.106;2023-05-07T09:18:12;27.88;;;15.23;;
78799;SDS011;68148;55.328;86.106;2023-05-07T09:20:38;37.53;;;15.32;;
78799;SDS011;68148;55.328;86.106;2023-05-07T09:23:05;27.38;;;14.27;;
78799;SDS011;68148;55.328;86.106;2023-05-07T09:25:35;30.90;;;14.52;;
78799;SDS011;68148;55.328;86.106;2023-05-07T09:28:02;27.52;;;13.95;;
78799;SDS011;68148;55.328;86.106;2023-05-07T09:30:29;26.55;;;15.02;;
78799;SDS011;68148;55.328;86.106;2023-05-07T09:32:57;29.73;;;15.55;;
78799;SDS011;68148;55.328;86.106;2023-05-07T09:35:24;32.75;;;15.27;;
78799;SDS011;68148;55.328;86.106;2023-05-07T09:37:51;29.00;;;15.25;;
78799;SDS011;68148;55.328;86.106;2023-05-07T09:40:23;33.53;;;15.10;;
78799;SDS011;68148;55.328;86.106;2023-05-07T09:42:53;35.60;;;15.35;;
78799;SDS011;68148;55.328;86.106;2023-05-07T09:45:24;30.02;;;16.08;;
78799;SDS011;68148;55.328;86.106;2023-05-07T09:47:53;31.63;;;15.35;;
78799;SDS011;68148;55.328;86.106;2023-05-07T09:50:27;30.48;;;14.65;;
78799;SDS011;68148;55.328;86.106;2023-05-07T09:52:55;32.70;;;15.38;;
78799;SDS011;68148;55.328;86.106;2023-05-07T09:57:49;29.48;;;15.05;;
78799;SDS011;68148;55.328;86.106;2023-05-07T10:00:17;29.38;;;15.45;;
78799;SDS011;68148;55.328;86.106;2023-05-07T10:02:48;26.10;;;15.70;;
78799;SDS011;68148;55.328;86.106;2023-05-07T10:05:15;29.90;;;15.60;;
78799;SDS011;68148;55.328;86.106;2023-05-07T10:07:41;49.25;;;15.45;;
78799;SDS011;68148;55.328;86.106;2023-05-07T10:10:08;37.28;;;16.25;;
78799;SDS011;68148;55.328;86.106;2023-05-07T10:12:34;25.48;;;14.07;;
78799;SDS011;68148;55.328;86.106;2023-05-07T10:15:00;28.73;;;14.68;;
78799;SDS011;68148;55.328;86.106;2023-05-07T10:17:26;26.65;;;15.32;;
78799;SDS011;68148;55.328;86.106;2023-05-07T10:19:52;29.15;;;13.73;;
78799;SDS011;68148;55.328;86.106;2023-05-07T10:22:19;32.40;;;15.68;;
78799;SDS011;68148;55.328;86.106;2023-05-07T10:24:46;28.10;;;14.10;;
78799;SDS011;68148;55.328;86.106;2023-05-07T10:27:16;26.25;;;14.38;;
78799;SDS011;68148;55.328;86.106;2023-05-07T10:29:58;29.23;;;14.63;;
78799;SDS011;68148;55.328;86.106;2023-05-07T10:32:47;25.45;;;13.60;;
78799;SDS011;68148;55.328;86.106;2023-05-07T10:35:20;24.80;;;14.55;;
78799;SDS011;68148;55.328;86.106;2023-05-07T10:37:49;37.03;;;15.38;;
78799;SDS011;68148;55.328;86.106;2023-05-07T10:40:16;34.13;;;14.10;;
78799;SDS011;68148;55.328;86.106;2023-05-07T10:42:58;25.15;;;13.68;;
78799;SDS011;68148;55.328;86.106;2023-05-07T10:45:28;34.13;;;13.85;;
78799;SDS011;68148;55.328;86.106;2023-05-07T10:48:13;24.30;;;12.00;;
78799;SDS011;68148;55.328;86.106;2023-05-07T10:50:40;29.65;;;14.18;;
78799;SDS011;68148;55.328;86.106;2023-05-07T10:55:48;28.67;;;14.00;;
78799;SDS011;68148;55.328;86.106;2023-05-07T11:00:46;28.02;;;15.15;;
78799;SDS011;68148;55.328;86.106;2023-05-07T11:03:15;33.17;;;14.45;;
78799;SDS011;68148;55.328;86.106;2023-05-07T11:05:41;28.30;;;14.38;;
78799;SDS011;68148;55.328;86.106;2023-05-07T11:08:08;44.33;;;14.68;;
78799;SDS011;68148;55.328;86.106;2023-05-07T11:10:47;31.27;;;13.95;;
78799;SDS011;68148;55.328;86.106;2023-05-07T11:13:15;65.20;;;18.15;;
78799;SDS011;68148;55.328;86.106;2023-05-07T11:18:08;39.60;;;14.95;;
78799;SDS011;68148;55.328;86.106;2023-05-07T11:26:08;29.15;;;13.05;;
78799;SDS011;68148;55.328;86.106;2023-05-07T11:28:44;27.95;;;13.45;;
78799;SDS011;68148;55.328;86.106;2023-05-07T11:31:10;48.45;;;15.10;;
78799;SDS011;68148;55.328;86.106;2023-05-07T11:33:37;35.38;;;14.57;;
78799;SDS011;68148;55.328;86.106;2023-05-07T11:36:03;31.75;;;15.18;;
78799;SDS011;68148;55.328;86.106;2023-05-07T11:38:30;25.65;;;14.23;;
78799;SDS011;68148;55.328;86.106;2023-05-07T11:41:00;36.03;;;14.50;;
78799;SDS011;68148;55.328;86.106;2023-05-07T11:43:26;29.05;;;13.70;;
78799;SDS011;68148;55.328;86.106;2023-05-07T11:45:52;36.05;;;15.00;;
78799;SDS011;68148;55.328;86.106;2023-05-07T11:48:18;39.17;;;15.02;;
78799;SDS011;68148;55.328;86.106;2023-05-07T11:50:50;32.92;;;15.40;;
78799;SDS011;68148;55.328;86.106;2023-05-07T11:53:25;33.70;;;15.70;;
78799;SDS011;68148;55.328;86.106;2023-05-07T11:55:52;36.85;;;16.48;;
78799;SDS011;68148;55.328;86.106;2023-05-07T11:58:22;35.85;;;14.95;;
78799;SDS011;68148;55.328;86.106;2023-05-07T12:00:50;34.08;;;15.23;;
78799;SDS011;68148;55.328;86.106;2023-05-07T12:03:16;37.38;;;16.25;;
78799;SDS011;68148;55.328;86.106;2023-05-07T12:05:42;26.30;;;15.48;;
78799;SDS011;68148;55.328;86.106;2023-05-07T12:08:10;28.88;;;15.60;;
78799;SDS011;68148;55.328;86.106;2023-05-07T12:10:42;30.30;;;15.82;;
78799;SDS011;68148;55.328;86.106;2023-05-07T12:13:18;35.88;;;15.95;;
78799;SDS011;68148;55.328;86.106;2023-05-07T12:15:52;37.80;;;16.60;;
78799;SDS011;68148;55.328;86.106;2023-05-07T12:18:18;32.90;;;16.27;;
78799;SDS011;68148;55.328;86.106;2023-05-07T12:20:46;34.03;;;16.70;;
78799;SDS011;68148;55.328;86.106;2023-05-07T12:23:12;29.10;;;16.00;;
78799;SDS011;68148;55.328;86.106;2023-05-07T12:25:38;38.70;;;16.50;;
78799;SDS011;68148;55.328;86.106;2023-05-07T12:30:32;39.70;;;15.95;;
78799;SDS011;68148;55.328;86.106;2023-05-07T12:33:02;35.45;;;17.05;;
78799;SDS011;68148;55.328;86.106;2023-05-07T12:35:28;30.63;;;15.10;;
78799;SDS011;68148;55.328;86.106;2023-05-07T12:37:55;32.78;;;16.52;;
78799;SDS011;68148;55.328;86.106;2023-05-07T12:42:47;40.15;;;16.30;;
78799;SDS011;68148;55.328;86.106;2023-05-07T12:45:18;45.78;;;16.75;;
78799;SDS011;68148;55.328;86.106;2023-05-07T12:47:44;39.33;;;16.25;;
78799;SDS011;68148;55.328;86.106;2023-05-07T12:50:11;36.95;;;16.65;;
78799;SDS011;68148;55.328;86.106;2023-05-07T12:52:42;33.38;;;15.98;;
78799;SDS011;68148;55.328;86.106;2023-05-07T12:55:13;34.17;;;14.63;;
78799;SDS011;68148;55.328;86.106;2023-05-07T12:57:41;37.00;;;16.95;;
78799;SDS011;68148;55.328;86.106;2023-05-07T13:00:09;39.00;;;16.55;;
78799;SDS011;68148;55.328;86.106;2023-05-07T13:02:38;45.92;;;16.65;;
78799;SDS011;68148;55.328;86.106;2023-05-07T13:05:06;42.13;;;16.95;;
78799;SDS011;68148;55.328;86.106;2023-05-07T13:07:33;40.92;;;17.48;;
78799;SDS011;68148;55.328;86.106;2023-05-07T13:10:00;45.55;;;17.38;;
78799;SDS011;68148;55.328;86.106;2023-05-07T13:12:26;47.72;;;17.20;;
78799;SDS011;68148;55.328;86.106;2023-05-07T13:14:53;40.22;;;17.27;;
78799;SDS011;68148;55.328;86.106;2023-05-07T13:19:46;57.20;;;17.10;;
78799;SDS011;68148;55.328;86.106;2023-05-07T13:22:13;52.80;;;18.13;;
78799;SDS011;68148;55.328;86.106;2023-05-07T13:24:40;38.40;;;17.05;;
78799;SDS011;68148;55.328;86.106;2023-05-07T13:27:06;43.60;;;18.20;;
78799;SDS011;68148;55.328;86.106;2023-05-07T13:29:32;42.28;;;17.55;;
78799;SDS011;68148;55.328;86.106;2023-05-07T13:31:58;43.95;;;18.65;;
78799;SDS011;68148;55.328;86.106;2023-05-07T13:34:26;33.45;;;17.38;;
78799;SDS011;68148;55.328;86.106;2023-05-07T13:36:52;49.00;;;18.63;;
78799;SDS011;68148;55.328;86.106;2023-05-07T13:39:19;43.08;;;18.13;;
78799;SDS011;68148;55.328;86.106;2023-05-07T13:41:45;40.85;;;18.42;;
78799;SDS011;68148;55.328;86.106;2023-05-07T13:44:11;51.63;;;18.02;;
78799;SDS011;68148;55.328;86.106;2023-05-07T13:46:38;48.88;;;19.65;;
78799;SDS011;68148;55.328;86.106;2023-05-07T13:49:03;45.00;;;17.38;;
78799;SDS011;68148;55.328;86.106;2023-05-07T13:51:29;49.67;;;18.95;;
78799;SDS011;68148;55.328;86.106;2023-05-07T13:53:55;47.55;;;18.65;;
78799;SDS011;68148;55.328;86.106;2023-05-07T13:56:21;42.95;;;18.58;;
78799;SDS011;68148;55.328;86.106;2023-05-07T13:58:47;59.00;;;20.13;;
78799;SDS011;68148;55.328;86.106;2023-05-07T14:01:13;46.03;;;19.33;;
78799;SDS011;68148;55.328;86.106;2023-05-07T14:03:39;53.40;;;20.25;;
78799;SDS011;68148;55.328;86.106;2023-05-07T14:06:05;41.95;;;19.40;;
78799;SDS011;68148;55.328;86.106;2023-05-07T14:08:31;50.95;;;19.55;;
78799;SDS011;68148;55.328;86.106;2023-05-07T14:10:57;55.78;;;20.20;;
78799;SDS011;68148;55.328;86.106;2023-05-07T14:13:23;52.38;;;19.38;;
78799;SDS011;68148;55.328;86.106;2023-05-07T14:15:49;62.42;;;19.75;;
78799;SDS011;68148;55.328;86.106;2023-05-07T14:18:15;50.95;;;20.83;;
78799;SDS011;68148;55.328;86.106;2023-05-07T14:20:41;48.13;;;19.08;;
78799;SDS011;68148;55.328;86.106;2023-05-07T14:23:08;53.75;;;20.65;;
78799;SDS011;68148;55.328;86.106;2023-05-07T14:25:34;56.92;;;21.00;;
78799;SDS011;68148;55.328;86.106;2023-05-07T14:28:00;49.10;;;20.85;;
78799;SDS011;68148;55.328;86.106;2023-05-07T14:30:26;54.58;;;20.92;;
78799;SDS011;68148;55.328;86.106;2023-05-07T14:32:52;62.85;;;22.20;;
78799;SDS011;68148;55.328;86.106;2023-05-07T14:35:18;60.10;;;22.70;;
78799;SDS011;68148;55.328;86.106;2023-05-07T14:37:44;56.60;;;25.33;;
78799;SDS011;68148;55.328;86.106;2023-05-07T14:40:09;66.47;;;24.33;;
78799;SDS011;68148;55.328;86.106;2023-05-07T14:42:35;70.63;;;26.13;;
78799;SDS011;68148;55.328;86.106;2023-05-07T14:45:01;77.47;;;25.58;;